Time;durP1;ratioP1;P1;durP2;ratioP2;P2;SDS_P1;SDS_P2;PMS_P1;PMS_P2;Temp;Humidity;BMP_temperature;BMP_pressure;BME280_temperature;BME280_humidity;BME280_pressure;Samples;Min_cycle;Max_cycle;Signal;HPM_P1;HPM_P2
2022/05/05 04:14:37;;;;;;;15.85;12.25;;;;;;;12.68;100.00;100693.72;5558373;32;179848;-88
2022/05/05 04:21:58;;;;;;;13.75;11.63;;;;;;;12.69;100.00;100708.75;5544687;32;35446;-88
2022/05/05 04:25:01;;;;;;;15.82;12.50;;;;;;;12.91;100.00;100713.78;5543229;32;33480;-88
2022/05/05 04:28:04;;;;;;;17.12;12.88;;;;;;;12.87;100.00;100714.87;5543966;32;34502;-88
2022/05/05 04:31:09;;;;;;;14.68;12.18;;;;;;;12.88;100.00;100716.59;5544373;32;33949;-86
2022/05/05 04:34:11;;;;;;;17.35;11.95;;;;;;;12.90;100.00;100719.19;5544325;32;34062;-87
2022/05/05 04:37:14;;;;;;;15.18;11.30;;;;;;;12.98;100.00;100726.75;5544134;32;34158;-87
2022/05/05 04:40:16;;;;;;;14.75;12.20;;;;;;;13.05;100.00;100736.13;5543977;32;33935;-87
2022/05/05 04:43:19;;;;;;;15.77;11.30;;;;;;;13.10;100.00;100738.53;5545310;32;32451;-88
2022/05/05 04:46:22;;;;;;;13.90;11.73;;;;;;;13.18;99.62;100746.97;5542805;32;33902;-87
2022/05/05 04:49:25;;;;;;;13.40;11.32;;;;;;;13.25;100.00;100750.16;5544653;32;35067;-87
2022/05/05 04:52:27;;;;;;;14.95;10.80;;;;;;;13.27;99.73;100754.44;5543969;32;34577;-87
2022/05/05 04:55:30;;;;;;;15.85;11.15;;;;;;;13.40;99.41;100746.66;5543561;32;33851;-90
2022/05/05 04:58:33;;;;;;;18.08;11.40;;;;;;;13.44;98.50;100748.19;5543430;32;33965;-91
2022/05/05 05:01:36;;;;;;;12.80;11.18;;;;;;;13.52;98.51;100754.94;5543871;32;34053;-91
2022/05/05 05:04:39;;;;;;;12.95;11.50;;;;;;;13.54;98.16;100755.69;5544278;32;33663;-91
2022/05/05 05:07:42;;;;;;;15.50;11.55;;;;;;;13.61;98.17;100749.94;5542733;32;33171;-88
2022/05/05 05:10:44;;;;;;;14.20;11.25;;;;;;;13.79;98.13;100739.19;5543516;32;34209;-88
2022/05/05 05:13:52;;;;;;;17.27;11.93;;;;;;;13.86;97.43;100739.66;5543662;32;33876;-87
2022/05/05 05:16:54;;;;;;;13.10;11.50;;;;;;;14.08;94.78;100746.44;5542084;32;33669;-87
2022/05/05 05:19:57;;;;;;;12.80;11.00;;;;;;;13.91;95.28;100736.72;5543891;32;33848;-87
2022/05/05 05:23:00;;;;;;;13.25;11.45;;;;;;;14.09;95.51;100743.66;5542355;32;33202;-87
2022/05/05 05:26:03;;;;;;;14.52;11.70;;;;;;;14.02;94.73;100750.31;5530841;32;35206;-87
2022/05/05 05:29:05;;;;;;;15.23;11.38;;;;;;;13.91;95.50;100755.41;5529746;32;33931;-86
2022/05/05 05:32:08;;;;;;;16.42;11.68;;;;;;;13.84;96.49;100758.41;5523865;32;33081;-86
2022/05/05 05:35:11;;;;;;;16.87;10.95;;;;;;;13.92;98.17;100765.97;5530890;32;33996;-86
2022/05/05 05:38:14;;;;;;;15.95;9.27;;;;;;;14.09;96.28;100767.66;5528261;32;33788;-86
2022/05/05 05:41:16;;;;;;;12.57;10.05;;;;;;;14.09;93.48;100770.34;5518017;32;32291;-86
2022/05/05 05:44:19;;;;;;;13.18;10.15;;;;;;;14.10;93.58;100766.75;5523238;32;32620;-86
2022/05/05 05:47:22;;;;;;;12.85;10.25;;;;;;;14.18;94.09;100774.28;5510068;32;33094;-86
2022/05/05 05:50:27;;;;;;;13.70;9.93;;;;;;;14.27;93.54;100779.06;5512894;32;32536;-87
2022/05/05 05:53:29;;;;;;;10.80;9.45;;;;;;;14.47;94.25;100765.47;5515417;32;33937;-87
2022/05/05 05:56:32;;;;;;;11.88;10.02;;;;;;;14.61;93.36;100767.31;5529814;32;33886;-87
2022/05/05 05:59:35;;;;;;;11.32;10.05;;;;;;;14.67;92.77;100770.50;5527446;32;33258;-87
2022/05/05 06:06:00;;;;;;;11.30;9.73;;;;;;;14.66;91.72;100775.91;5549826;32;32486;-87
2022/05/05 06:09:03;;;;;;;11.60;9.88;;;;;;;14.91;91.36;100780.66;5550041;32;34022;-87
2022/05/05 06:12:06;;;;;;;11.20;10.05;;;;;;;14.95;90.00;100787.50;5541872;32;34362;-88
2022/05/05 06:15:10;;;;;;;15.23;10.27;;;;;;;14.98;90.04;100770.44;5531152;32;33943;-87
2022/05/05 06:18:13;;;;;;;14.95;10.45;;;;;;;15.05;89.09;100777.09;5530668;32;35120;-88
2022/05/05 06:21:15;;;;;;;14.00;11.18;;;;;;;15.29;87.57;100773.84;5531445;32;34105;-88
2022/05/05 06:24:23;;;;;;;14.07;10.32;;;;;;;15.38;87.42;100780.44;5530151;32;33534;-87
2022/05/05 06:27:25;;;;;;;14.90;11.07;;;;;;;15.74;85.32;100775.50;5530754;32;33089;-89
2022/05/05 06:30:29;;;;;;;12.93;10.80;;;;;;;15.98;83.99;100780.22;5560895;26;33341;-89
2022/05/05 06:33:32;;;;;;;12.95;10.23;;;;;;;16.21;81.90;100783.19;5563363;32;34449;-89
2022/05/05 06:36:35;;;;;;;13.73;10.52;;;;;;;16.04;81.62;100782.47;5551641;32;32508;-89
2022/05/05 06:39:37;;;;;;;14.98;10.40;;;;;;;16.10;82.39;100790.09;5549914;32;32681;-89
2022/05/05 06:42:41;;;;;;;13.18;11.60;;;;;;;16.29;81.13;100795.09;5551248;32;33897;-90
2022/05/05 06:45:43;;;;;;;15.05;10.77;;;;;;;16.56;79.97;100790.63;5564193;26;32457;-89
2022/05/05 06:48:47;;;;;;;15.45;10.98;;;;;;;16.61;79.86;100793.00;5597648;26;32379;-90
2022/05/05 06:51:49;;;;;;;13.23;10.05;;;;;;;16.80;78.71;100788.06;5539807;32;31426;-88
2022/05/05 06:54:52;;;;;;;12.43;9.85;;;;;;;17.26;77.98;100788.53;5542700;32;34271;-87
2022/05/05 06:57:55;;;;;;;10.77;9.45;;;;;;;17.67;76.48;100790.97;5529152;32;33149;-89
2022/05/05 07:08:03;;;;;;;12.50;11.00;;;;;;;18.78;71.07;100805.97;5530657;32;33098;-88
2022/05/05 07:11:06;;;;;;;13.65;11.10;;;;;;;19.63;67.32;100802.94;5549386;31;34169;-88
2022/05/05 07:14:12;;;;;;;16.10;11.05;;;;;;;20.67;64.03;100806.97;5516352;32;33121;-87
2022/05/05 07:17:15;;;;;;;12.43;10.85;;;;;;;20.36;63.80;100806.91;5516361;32;33342;-87
2022/05/05 07:20:23;;;;;;;12.25;10.48;;;;;;;20.20;63.48;100808.19;5530384;32;33530;-84
2022/05/05 07:23:50;;;;;;;14.52;10.00;;;;;;;20.24;63.30;100801.56;5532151;32;33267;-87
2022/05/05 07:26:53;;;;;;;10.88;9.48;;;;;;;20.65;62.05;100807.09;5547333;32;33615;-87
2022/05/05 07:29:56;;;;;;;11.63;8.27;;;;;;;20.92;59.68;100811.13;5534234;32;32635;-86
2022/05/05 07:33:00;;;;;;;10.73;8.93;;;;;;;21.17;59.15;100803.56;5547545;32;34558;-87
2022/05/05 07:36:03;;;;;;;12.90;8.35;;;;;;;20.66;60.02;100811.50;5547545;32;35190;-88
2022/05/05 07:39:06;;;;;;;12.10;8.65;;;;;;;21.03;59.69;100802.13;5535522;32;33755;-87
2022/05/05 07:42:09;;;;;;;9.80;8.60;;;;;;;21.14;55.52;100804.69;5529290;32;32693;-87
2022/05/05 07:45:12;;;;;;;10.05;7.70;;;;;;;21.29;54.56;100801.66;5535204;32;35411;-87
2022/05/05 07:48:14;;;;;;;13.93;8.07;;;;;;;21.62;55.12;100799.59;5528236;32;33780;-87
2022/05/05 07:51:17;;;;;;;8.80;7.82;;;;;;;21.38;54.05;100795.41;5517694;32;32516;-87
2022/05/05 07:54:39;;;;;;;12.05;7.22;;;;;;;22.09;53.33;100798.16;5524175;32;34041;-87
2022/05/05 07:57:44;;;;;;;6.60;6.00;;;;;;;23.30;51.01;100804.88;5534179;32;32528;-85
2022/05/05 08:00:46;;;;;;;5.93;5.07;;;;;;;22.47;48.89;100799.13;5548867;32;33472;-85
2022/05/05 08:03:49;;;;;;;5.80;4.72;;;;;;;22.23;48.25;100806.81;5534355;32;33273;-86
2022/05/05 08:06:52;;;;;;;6.35;4.85;;;;;;;21.87;49.15;100812.78;5534870;32;32881;-90
2022/05/05 08:10:00;;;;;;;9.57;4.62;;;;;;;22.06;48.67;100812.78;5536993;32;33691;-91
2022/05/05 08:13:04;;;;;;;8.45;4.70;;;;;;;23.33;46.72;100810.03;5546868;32;34115;-88
2022/05/05 08:16:07;;;;;;;5.45;4.47;;;;;;;23.25;46.61;100812.59;5561972;32;34268;-88
2022/05/05 08:19:10;;;;;;;4.78;4.30;;;;;;;23.03;46.09;100811.97;5532215;32;33612;-86
2022/05/05 08:22:13;;;;;;;4.80;4.40;;;;;;;23.44;44.05;100822.53;5546344;32;33925;-86
2022/05/05 08:28:39;;;;;;;7.20;5.60;;;;;;;23.47;45.12;100829.50;5546075;32;33804;-86
2022/05/05 08:31:41;;;;;;;6.47;5.25;;;;;;;22.02;49.49;100829.44;5546660;32;33852;-85
2022/05/05 08:34:47;;;;;;;7.37;5.50;;;;;;;22.39;49.14;100823.31;5545183;32;34352;-86
2022/05/05 08:37:52;;;;;;;6.62;4.97;;;;;;;22.97;48.53;100823.37;5524943;32;32336;-86
2022/05/05 08:40:57;;;;;;;6.45;4.68;;;;;;;21.98;49.42;100822.59;5529495;32;32379;-86
2022/05/05 08:44:00;;;;;;;6.20;4.25;;;;;;;22.56;47.45;100826.31;5527372;32;32157;-86
2022/05/05 08:47:08;;;;;;;4.57;4.20;;;;;;;23.64;44.62;100822.41;5546376;32;34166;-86
2022/05/05 08:50:12;;;;;;;4.82;4.40;;;;;;;23.75;43.69;100824.91;5535996;32;32814;-85
2022/05/05 08:53:15;;;;;;;4.70;4.30;;;;;;;23.27;43.32;100826.81;5541872;32;33823;-89
2022/05/05 08:56:18;;;;;;;5.55;4.20;;;;;;;22.83;44.80;100824.72;5538545;32;32581;-88
2022/05/05 08:59:31;;;;;;;4.53;4.18;;;;;;;23.11;44.99;100824.75;5549814;32;34049;-87
2022/05/05 09:02:33;;;;;;;6.20;4.12;;;;;;;23.69;42.91;100828.22;5560172;32;34079;-88
2022/05/05 09:05:44;;;;;;;5.50;4.20;;;;;;;24.24;42.64;100829.16;5547908;32;32824;-89
2022/05/05 09:08:46;;;;;;;6.30;4.12;;;;;;;25.65;38.65;100829.22;5536680;32;32671;-89
2022/05/05 09:12:19;;;;;;;4.70;4.20;;;;;;;25.78;38.67;100832.31;5550610;32;35155;-89
2022/05/05 09:15:30;;;;;;;4.25;3.92;;;;;;;25.86;38.02;100831.50;5547968;32;33842;-85
2022/05/05 09:18:34;;;;;;;5.53;4.05;;;;;;;25.25;38.82;100828.88;5549132;32;33882;-87
2022/05/05 09:21:41;;;;;;;4.60;4.20;;;;;;;26.45;37.04;100835.16;5549462;32;33569;-89
2022/05/05 09:24:49;;;;;;;4.68;3.60;;;;;;;26.42;35.08;100833.63;5537478;32;33135;-90
2022/05/05 09:27:54;;;;;;;4.50;4.10;;;;;;;25.56;37.65;100845.47;5550700;32;34680;-85
2022/05/05 09:31:04;;;;;;;4.87;3.97;;;;;;;26.71;35.85;100847.72;5553339;32;33296;-86
2022/05/05 09:34:17;;;;;;;4.45;4.12;;;;;;;24.34;38.17;100843.47;5559180;32;34012;-88
2022/05/05 09:37:21;;;;;;;4.15;3.80;;;;;;;25.38;37.63;100844.69;5555269;31;34542;-87
2022/05/05 09:40:24;;;;;;;4.75;4.18;;;;;;;25.97;36.58;100833.91;5550531;32;34470;-87
2022/05/05 09:43:30;;;;;;;4.87;4.30;;;;;;;25.67;37.97;100838.91;5560056;32;34112;-88
2022/05/05 09:46:33;;;;;;;4.60;3.92;;;;;;;26.98;34.37;100840.22;5558751;32;32736;-85
2022/05/05 09:49:36;;;;;;;7.50;4.22;;;;;;;27.66;33.80;100826.22;5552869;32;34093;-86
2022/05/05 09:59:30;;;;;;;5.35;3.65;;;;;;;28.34;32.88;100825.59;5536123;32;32416;-86
2022/05/05 10:06:05;;;;;;;4.85;4.45;;;;;;;26.22;35.64;100823.09;5551304;32;34070;-86
2022/05/05 10:09:18;;;;;;;5.65;4.28;;;;;;;26.78;34.99;100816.94;5534957;32;32348;-90
2022/05/05 10:12:32;;;;;;;5.70;4.53;;;;;;;26.70;36.51;100803.31;5545707;32;35378;-94
2022/05/05 10:15:37;;;;;;;5.18;4.57;;;;;;;27.23;34.36;100819.22;5549522;32;34646;-89
2022/05/05 10:19:03;;;;;;;5.03;4.10;;;;;;;25.74;36.24;100819.25;5546950;32;33854;-88
2022/05/05 10:22:13;;;;;;;5.40;4.40;;;;;;;26.18;35.92;100812.66;5544666;32;34007;-88
2022/05/05 10:25:26;;;;;;;4.45;4.12;;;;;;;26.28;36.07;100817.97;5551871;32;34215;-88
2022/05/05 10:28:44;;;;;;;4.72;4.18;;;;;;;27.25;34.10;100805.44;5555795;32;33970;-87
2022/05/05 10:31:48;;;;;;;4.68;4.28;;;;;;;28.12;32.57;100800.88;5553777;32;32526;-88
2022/05/05 10:35:12;;;;;;;6.40;4.30;;;;;;;29.53;30.33;100793.16;5535912;32;32490;-87
2022/05/05 10:38:39;;;;;;;4.65;3.72;;;;;;;30.01;28.94;100794.50;5546575;32;34145;-88
2022/05/05 10:41:42;;;;;;;4.00;3.65;;;;;;;29.24;30.69;100801.16;5531474;32;33716;-88
2022/05/05 10:45:16;;;;;;;6.68;3.60;;;;;;;28.61;31.00;100801.50;5535906;32;33154;-87
2022/05/05 10:48:29;;;;;;;5.72;3.22;;;;;;;26.94;32.06;100796.16;5542570;32;34654;-88
2022/05/05 10:51:32;;;;;;;3.30;2.97;;;;;;;26.94;31.18;100796.16;5533433;32;32862;-89
2022/05/05 10:54:42;;;;;;;3.28;3.08;;;;;;;27.14;32.02;100790.31;5545806;32;34426;-88
2022/05/05 10:57:45;;;;;;;3.67;3.05;;;;;;;27.02;31.89;100787.13;5548200;32;34854;-88
2022/05/05 11:00:56;;;;;;;4.90;3.17;;;;;;;26.37;31.83;100785.19;5551176;32;33825;-89
2022/05/05 11:04:12;;;;;;;3.25;3.05;;;;;;;26.45;32.36;100783.47;5534901;32;33558;-90
2022/05/05 11:07:30;;;;;;;5.05;3.00;;;;;;;26.87;31.59;100785.13;5550034;32;33693;-91
2022/05/05 11:10:47;;;;;;;7.20;3.30;;;;;;;27.58;30.44;100778.91;5535926;32;34491;-90
2022/05/05 11:13:49;;;;;;;4.05;3.62;;;;;;;27.75;29.31;100780.69;5560160;26;33668;-90
2022/05/05 11:23:48;;;;;;;6.78;3.47;;;;;;;27.36;30.24;100775.09;5561161;31;33077;-89
2022/05/05 11:26:53;;;;;;;3.90;3.60;;;;;;;26.34;31.05;100785.53;5565892;32;34932;-92
2022/05/05 11:29:59;;;;;;;3.70;3.40;;;;;;;25.04;33.14;100778.53;5593436;26;32880;-90
2022/05/05 11:33:03;;;;;;;4.82;3.53;;;;;;;24.88;33.29;100773.88;5596067;26;34149;-89
2022/05/05 11:36:31;;;;;;;5.85;3.60;;;;;;;24.94;34.16;100780.53;5522939;32;32909;-87
2022/05/05 11:39:35;;;;;;;3.92;3.53;;;;;;;24.20;35.96;100776.28;5535300;32;33755;-89
2022/05/05 11:46:06;;;;;;;5.68;3.80;;;;;;;24.44;35.14;100769.34;5531705;32;32423;-88
2022/05/05 11:49:10;;;;;;;6.43;3.80;;;;;;;24.26;35.17;100759.37;5537341;32;33230;-87
2022/05/05 11:52:16;;;;;;;4.45;3.45;;;;;;;24.44;35.68;100762.03;5541907;32;33987;-87
2022/05/05 11:55:22;;;;;;;3.85;3.42;;;;;;;24.67;35.59;100766.09;5536678;32;33113;-88
2022/05/05 12:01:59;;;;;;;4.55;3.50;;;;;;;24.86;34.65;100746.06;5532518;32;32918;-89
2022/05/05 12:05:02;;;;;;;4.12;3.83;;;;;;;25.01;33.23;100749.88;5530035;32;34062;-92
2022/05/05 12:08:08;;;;;;;6.05;3.83;;;;;;;24.45;34.21;100746.63;5519382;32;32269;-89
2022/05/05 12:11:10;;;;;;;6.78;3.90;;;;;;;24.94;33.35;100739.84;5536867;32;33882;-89
2022/05/05 12:14:14;;;;;;;4.20;3.85;;;;;;;24.93;33.72;100743.56;5516434;32;32829;-89
2022/05/05 12:17:20;;;;;;;6.00;3.87;;;;;;;24.47;34.21;100736.47;5534381;32;33639;-89
2022/05/05 12:20:23;;;;;;;4.68;3.80;;;;;;;24.78;34.42;100727.84;5523062;32;33581;-89
2022/05/05 12:23:28;;;;;;;5.93;3.75;;;;;;;25.26;33.60;100716.56;5528422;32;32603;-89
2022/05/05 12:26:36;;;;;;;5.45;3.60;;;;;;;25.16;33.85;100724.84;5548999;32;33831;-88
2022/05/05 12:29:42;;;;;;;6.12;3.70;;;;;;;24.99;34.26;100724.75;5554833;32;34342;-88
2022/05/05 12:32:50;;;;;;;5.60;3.70;;;;;;;24.49;34.30;100721.75;5558203;32;33963;-89
2022/05/05 12:35:53;;;;;;;7.55;4.03;;;;;;;24.28;35.78;100713.16;5545799;32;33951;-92
2022/05/05 12:39:11;;;;;;;6.00;3.78;;;;;;;25.09;34.43;100724.63;5524934;32;33943;-93
2022/05/05 12:42:16;;;;;;;4.72;3.72;;;;;;;24.69;35.08;100710.69;5536042;32;32799;-89
2022/05/05 12:45:27;;;;;;;6.87;4.22;;;;;;;25.44;34.57;100700.12;5536309;32;33755;-89
2022/05/05 12:48:30;;;;;;;6.85;3.95;;;;;;;25.73;32.23;100715.16;5544088;32;33807;-88
2022/05/05 12:51:35;;;;;;;6.65;3.90;;;;;;;26.11;32.45;100699.19;5546679;32;33731;-88
2022/05/05 13:01:23;;;;;;;4.22;3.83;;;;;;;25.47;33.25;100710.66;5536940;32;32598;-88
2022/05/05 13:04:26;;;;;;;6.50;3.83;;;;;;;24.98;33.95;100695.06;5536292;32;33272;-92
2022/05/05 13:07:29;;;;;;;4.57;4.12;;;;;;;25.64;32.84;100695.28;5535771;32;33076;-93
2022/05/05 13:10:31;;;;;;;4.03;3.67;;;;;;;25.51;33.35;100679.47;5549589;32;34684;-93
2022/05/05 13:13:34;;;;;;;9.25;3.87;;;;;;;25.63;32.61;100684.56;5536472;32;32215;-93
2022/05/05 13:16:38;;;;;;;6.32;3.70;;;;;;;24.65;34.75;100701.19;5549039;32;34032;-90
2022/05/05 13:19:42;;;;;;;6.95;3.47;;;;;;;24.81;34.30;100689.59;5550065;32;34352;-89
2022/05/05 13:22:44;;;;;;;4.43;4.00;;;;;;;24.81;34.22;100689.59;5553809;32;33751;-90
2022/05/05 13:25:48;;;;;;;9.77;3.95;;;;;;;25.01;35.31;100690.19;5559523;32;35169;-89
2022/05/05 13:28:51;;;;;;;5.00;3.83;;;;;;;24.97;34.41;100683.38;5550953;32;33764;-89
2022/05/05 13:31:53;;;;;;;10.82;4.05;;;;;;;25.08;33.44;100673.25;5551184;32;34134;-89
2022/05/05 13:34:56;;;;;;;6.00;4.20;;;;;;;25.11;33.30;100675.62;5536557;32;34694;-89
2022/05/05 13:37:59;;;;;;;4.22;3.83;;;;;;;25.47;31.60;100674.50;5551710;32;33951;-88
2022/05/05 13:41:03;;;;;;;4.60;3.85;;;;;;;25.54;31.62;100673.69;5556281;32;34674;-91
2022/05/05 13:44:06;;;;;;;4.75;3.75;;;;;;;25.32;31.43;100677.87;5559167;32;34402;-87
2022/05/05 13:50:55;;;;;;;5.03;4.00;;;;;;;25.80;30.48;100663.72;2295194;29;20107;-88
2022/05/05 13:53:58;;;;;;;4.28;3.87;;;;;;;25.83;30.39;100658.78;5579992;26;33614;-89
2022/05/05 13:57:00;;;;;;;4.03;3.60;;;;;;;25.78;31.12;100660.28;5572742;32;34630;-89
2022/05/05 14:00:08;;;;;;;6.15;3.97;;;;;;;25.46;31.18;100662.81;5556101;32;34183;-89
2022/05/05 14:03:14;;;;;;;4.72;3.67;;;;;;;25.32;31.39;100661.59;5555152;32;32194;-89
2022/05/05 14:06:17;;;;;;;5.85;3.80;;;;;;;25.15;31.94;100655.28;5569825;32;34615;-89
2022/05/05 14:24:20;;;;;;;4.12;3.80;;;;;;;24.53;33.47;100642.81;5359120;30;20432;-89
2022/05/05 14:27:23;;;;;;;10.93;4.43;;;;;;;24.59;33.20;100648.44;5518017;32;34134;-89
2022/05/05 14:30:25;;;;;;;4.90;4.18;;;;;;;24.71;32.08;100646.28;5531388;32;33849;-89
2022/05/05 14:33:28;;;;;;;4.87;3.72;;;;;;;24.69;32.19;100645.59;5527554;32;34483;-89
2022/05/05 14:36:31;;;;;;;6.50;4.05;;;;;;;24.72;32.15;100650.69;5530098;32;35153;-89
2022/05/05 14:39:34;;;;;;;4.90;4.15;;;;;;;24.83;32.81;100641.44;5529900;32;33871;-88
2022/05/05 14:42:43;;;;;;;4.43;4.03;;;;;;;24.87;32.20;100655.53;5530503;32;34353;-89
2022/05/05 14:45:47;;;;;;;4.82;4.10;;;;;;;24.93;32.55;100651.31;5516484;32;34015;-89
2022/05/05 14:48:50;;;;;;;5.22;4.18;;;;;;;24.98;32.70;100652.50;5529274;32;34436;-89
2022/05/05 14:51:54;;;;;;;7.07;3.87;;;;;;;24.93;32.92;100657.59;5516124;32;33954;-89
2022/05/05 14:54:57;;;;;;;4.60;4.05;;;;;;;24.99;33.72;100651.50;5530354;32;34515;-89
2022/05/05 14:58:00;;;;;;;5.72;4.15;;;;;;;25.20;33.06;100647.50;5513497;32;33151;-89
2022/05/05 15:01:06;;;;;;;5.57;4.10;;;;;;;24.91;33.10;100659.62;5531169;32;34503;-93
2022/05/05 15:04:09;;;;;;;5.05;3.83;;;;;;;24.26;33.92;100660.94;5516389;32;33792;-93
2022/05/05 15:07:12;;;;;;;14.07;3.90;;;;;;;24.40;33.79;100654.09;5532138;32;34689;-92
2022/05/05 15:10:15;;;;;;;7.28;4.20;;;;;;;24.52;33.42;100652.81;5530173;32;34048;-90
2022/05/05 15:13:18;;;;;;;5.85;4.15;;;;;;;24.76;33.11;100645.78;5516571;32;32799;-89
2022/05/05 15:16:21;;;;;;;5.20;4.45;;;;;;;24.94;33.05;100648.41;5515540;32;32581;-89
2022/05/05 15:19:25;;;;;;;7.47;4.40;;;;;;;25.01;32.69;100640.47;5530742;32;34241;-89
2022/05/05 15:22:29;;;;;;;6.80;3.90;;;;;;;24.82;33.67;100637.03;5530665;32;34995;-89
